sensor_id;sensor_type;location;lat;lon;timestamp;pressure;altitude;pressure_sealevel;temperature;humidity
55044;BME280;54902;50.420;18.854;2022-12-24T00:00:25;100226.31;;;6.60;86.35
55044;BME280;54902;50.420;18.854;2022-12-24T00:00:56;100223.48;;;6.62;86.34
55044;BME280;54902;50.420;18.854;2022-12-24T00:01:27;100219.88;;;6.61;86.35
55044;BME280;54902;50.420;18.854;2022-12-24T00:01:58;100214.45;;;6.61;86.35
55044;BME280;54902;50.420;18.854;2022-12-24T00:02:29;100215.33;;;6.62;86.34
55044;BME280;54902;50.420;18.854;2022-12-24T00:03:00;100218.05;;;6.62;86.35
55044;BME280;54902;50.420;18.854;2022-12-24T00:03:32;100209.02;;;6.61;86.34
55044;BME280;54902;50.420;18.854;2022-12-24T00:04:03;100210.03;;;6.60;86.32
55044;BME280;54902;50.420;18.854;2022-12-24T00:04:35;100211.73;;;6.61;86.33
55044;BME280;54902;50.420;18.854;2022-12-24T00:05:06;100206.43;;;6.60;86.33
55044;BME280;54902;50.420;18.854;2022-12-24T00:05:37;100214.45;;;6.61;86.32
55044;BME280;54902;50.420;18.854;2022-12-24T00:06:12;100215.33;;;6.62;86.32
55044;BME280;54902;50.420;18.854;2022-12-24T00:06:45;100217.93;;;6.63;86.33
55044;BME280;54902;50.420;18.854;2022-12-24T00:07:17;100218.91;;;6.62;86.31
55044;BME280;54902;50.420;18.854;2022-12-24T00:07:47;100216.20;;;6.62;86.31
55044;BME280;54902;50.420;18.854;2022-12-24T00:08:19;100216.20;;;6.62;86.33
55044;BME280;54902;50.420;18.854;2022-12-24T00:08:51;100217.05;;;6.63;86.31
55044;BME280;54902;50.420;18.854;2022-12-24T00:09:22;100211.62;;;6.63;86.30
55044;BME280;54902;50.420;18.854;2022-12-24T00:09:53;100209.78;;;6.63;86.33
55044;BME280;54902;50.420;18.854;2022-12-24T00:10:24;100205.34;;;6.62;86.32
55044;BME280;54902;50.420;18.854;2022-12-24T00:10:55;100200.77;;;6.63;86.34
55044;BME280;54902;50.420;18.854;2022-12-24T00:11:26;100202.50;;;6.64;86.31
55044;BME280;54902;50.420;18.854;2022-12-24T00:11:57;100198.92;;;6.63;86.32
55044;BME280;54902;50.420;18.854;2022-12-24T00:12:28;100202.50;;;6.64;86.27
55044;BME280;54902;50.420;18.854;2022-12-24T00:12:59;100200.67;;;6.64;86.31
55044;BME280;54902;50.420;18.854;2022-12-24T00:13:30;100201.65;;;6.63;86.30
55044;BME280;54902;50.420;18.854;2022-12-24T00:14:00;100201.65;;;6.63;86.30
55044;BME280;54902;50.420;18.854;2022-12-24T00:14:31;100203.38;;;6.64;86.30
55044;BME280;54902;50.420;18.854;2022-12-24T00:15:04;100203.38;;;6.64;86.29
55044;BME280;54902;50.420;18.854;2022-12-24T00:15:35;100197.96;;;6.64;86.29
55044;BME280;54902;50.420;18.854;2022-12-24T00:16:06;100206.95;;;6.65;86.29
55044;BME280;54902;50.420;18.854;2022-12-24T00:16:37;100204.23;;;6.65;86.30
55044;BME280;54902;50.420;18.854;2022-12-24T00:17:08;100199.66;;;6.65;86.31
55044;BME280;54902;50.420;18.854;2022-12-24T00:17:39;100202.38;;;6.65;86.31
55044;BME280;54902;50.420;18.854;2022-12-24T00:18:10;100200.67;;;6.64;86.29
55044;BME280;54902;50.420;18.854;2022-12-24T00:18:41;100196.95;;;6.65;86.29
55044;BME280;54902;50.420;18.854;2022-12-24T00:19:12;100199.66;;;6.65;86.29
55044;BME280;54902;50.420;18.854;2022-12-24T00:19:43;100195.24;;;6.64;86.28
55044;BME280;54902;50.420;18.854;2022-12-24T00:20:14;100194.23;;;6.65;86.30
55044;BME280;54902;50.420;18.854;2022-12-24T00:20:47;100194.23;;;6.65;86.29
55044;BME280;54902;50.420;18.854;2022-12-24T00:21:18;100193.38;;;6.65;86.28
55044;BME280;54902;50.420;18.854;2022-12-24T00:21:49;100195.12;;;6.66;86.28
55044;BME280;54902;50.420;18.854;2022-12-24T00:22:20;100191.52;;;6.65;86.29
55044;BME280;54902;50.420;18.854;2022-12-24T00:22:51;100186.97;;;6.66;86.28
55044;BME280;54902;50.420;18.854;2022-12-24T00:23:22;100199.66;;;6.65;86.28
55044;BME280;54902;50.420;18.854;2022-12-24T00:23:53;100195.97;;;6.66;86.28
55044;BME280;54902;50.420;18.854;2022-12-24T00:24:24;100207.68;;;6.67;86.30
55044;BME280;54902;50.420;18.854;2022-12-24T00:24:55;100202.38;;;6.65;86.28
55044;BME280;54902;50.420;18.854;2022-12-24T00:25:26;100206.83;;;6.66;86.28
55044;BME280;54902;50.420;18.854;2022-12-24T00:25:57;100203.14;;;6.67;86.29
55044;BME280;54902;50.420;18.854;2022-12-24T00:26:28;100207.68;;;6.67;86.28
55044;BME280;54902;50.420;18.854;2022-12-24T00:26:59;100205.84;;;6.67;86.28
55044;BME280;54902;50.420;18.854;2022-12-24T00:27:30;100203.14;;;6.67;86.30
55044;BME280;54902;50.420;18.854;2022-12-24T00:28:01;100213.11;;;6.67;86.29
55044;BME280;54902;50.420;18.854;2022-12-24T00:28:32;100194.23;;;6.65;86.27
55044;BME280;54902;50.420;18.854;2022-12-24T00:29:03;100203.14;;;6.67;86.28
55044;BME280;54902;50.420;18.854;2022-12-24T00:29:34;100198.69;;;6.66;86.27
55044;BME280;54902;50.420;18.854;2022-12-24T00:30:05;100205.84;;;6.67;86.27
55044;BME280;54902;50.420;18.854;2022-12-24T00:30:38;100202.25;;;6.67;86.27
55044;BME280;54902;50.420;18.854;2022-12-24T00:31:12;100203.14;;;6.67;86.28
55044;BME280;54902;50.420;18.854;2022-12-24T00:31:44;100197.72;;;6.67;86.29
55044;BME280;54902;50.420;18.854;2022-12-24T00:32:15;100199.54;;;6.67;86.28
55044;BME280;54902;50.420;18.854;2022-12-24T00:32:45;100203.14;;;6.67;86.29
55044;BME280;54902;50.420;18.854;2022-12-24T00:33:16;100198.69;;;6.66;86.28
55044;BME280;54902;50.420;18.854;2022-12-24T00:33:47;100203.14;;;6.67;86.26
55044;BME280;54902;50.420;18.854;2022-12-24T00:34:19;100202.25;;;6.67;86.27
55044;BME280;54902;50.420;18.854;2022-12-24T00:34:50;100201.27;;;6.68;86.29
55044;BME280;54902;50.420;18.854;2022-12-24T00:35:20;100197.72;;;6.67;86.29
55044;BME280;54902;50.420;18.854;2022-12-24T00:35:53;100199.54;;;6.67;86.28
55044;BME280;54902;50.420;18.854;2022-12-24T00:36:24;100200.43;;;6.67;86.28
55044;BME280;54902;50.420;18.854;2022-12-24T00:36:55;100198.56;;;6.68;86.29
55044;BME280;54902;50.420;18.854;2022-12-24T00:37:26;100207.59;;;6.68;86.28
55044;BME280;54902;50.420;18.854;2022-12-24T00:37:57;100200.43;;;6.67;86.27
55044;BME280;54902;50.420;18.854;2022-12-24T00:38:28;100197.72;;;6.67;86.28
55044;BME280;54902;50.420;18.854;2022-12-24T00:38:59;100189.57;;;6.67;86.28
55044;BME280;54902;50.420;18.854;2022-12-24T00:39:30;100186.86;;;6.67;86.27
55044;BME280;54902;50.420;18.854;2022-12-24T00:40:01;100197.72;;;6.67;86.27
55044;BME280;54902;50.420;18.854;2022-12-24T00:40:32;100192.28;;;6.67;86.27
55044;BME280;54902;50.420;18.854;2022-12-24T00:41:06;100191.39;;;6.67;86.29
55044;BME280;54902;50.420;18.854;2022-12-24T00:41:48;100192.28;;;6.67;86.28
55044;BME280;54902;50.420;18.854;2022-12-24T00:42:19;100186.86;;;6.67;86.28
55044;BME280;54902;50.420;18.854;2022-12-24T00:42:50;100187.71;;;6.68;86.28
55044;BME280;54902;50.420;18.854;2022-12-24T00:43:21;100186.73;;;6.69;86.27
55044;BME280;54902;50.420;18.854;2022-12-24T00:43:57;100184.88;;;6.69;86.28
55044;BME280;54902;50.420;18.854;2022-12-24T00:44:29;100177.74;;;6.68;86.27
55044;BME280;54902;50.420;18.854;2022-12-24T00:45:00;100184.88;;;6.69;86.28
55044;BME280;54902;50.420;18.854;2022-12-24T00:45:31;100181.31;;;6.69;86.28
55044;BME280;54902;50.420;18.854;2022-12-24T00:46:02;100181.31;;;6.69;86.29
55044;BME280;54902;50.420;18.854;2022-12-24T00:46:33;100183.16;;;6.68;86.27
55044;BME280;54902;50.420;18.854;2022-12-24T00:47:04;100180.32;;;6.70;86.28
55044;BME280;54902;50.420;18.854;2022-12-24T00:47:35;100182.16;;;6.69;86.28
55044;BME280;54902;50.420;18.854;2022-12-24T00:48:06;100181.31;;;6.69;86.27
55044;BME280;54902;50.420;18.854;2022-12-24T00:48:37;100188.59;;;6.68;86.27
55044;BME280;54902;50.420;18.854;2022-12-24T00:49:09;100179.44;;;6.69;86.28
55044;BME280;54902;50.420;18.854;2022-12-24T00:49:41;100186.73;;;6.69;86.28
55044;BME280;54902;50.420;18.854;2022-12-24T00:50:12;100193.01;;;6.69;86.26
55044;BME280;54902;50.420;18.854;2022-12-24T00:50:43;100191.31;;;6.68;86.27
55044;BME280;54902;50.420;18.854;2022-12-24T00:51:14;100186.73;;;6.69;86.26
55044;BME280;54902;50.420;18.854;2022-12-24T00:51:45;100190.42;;;6.68;86.28
55044;BME280;54902;50.420;18.854;2022-12-24T00:52:16;100193.01;;;6.69;86.27
55044;BME280;54902;50.420;18.854;2022-12-24T00:52:47;100195.73;;;6.69;86.27
55044;BME280;54902;50.420;18.854;2022-12-24T00:53:18;100190.30;;;6.69;86.28
55044;BME280;54902;50.420;18.854;2022-12-24T00:53:50;100196.61;;;6.70;86.26
55044;BME280;54902;50.420;18.854;2022-12-24T00:54:21;100193.91;;;6.70;86.26
55044;BME280;54902;50.420;18.854;2022-12-24T00:54:52;100187.59;;;6.69;86.26
55044;BME280;54902;50.420;18.854;2022-12-24T00:55:23;100190.30;;;6.69;86.26
55044;BME280;54902;50.420;18.854;2022-12-24T00:55:54;100189.44;;;6.69;86.26
55044;BME280;54902;50.420;18.854;2022-12-24T00:56:26;100192.03;;;6.70;86.26
55044;BME280;54902;50.420;18.854;2022-12-24T00:56:57;100188.47;;;6.70;86.26
55044;BME280;54902;50.420;18.854;2022-12-24T00:57:28;100185.76;;;6.70;86.25
55044;BME280;54902;50.420;18.854;2022-12-24T00:57:59;100187.59;;;6.69;86.26
55044;BME280;54902;50.420;18.854;2022-12-24T00:58:30;100194.75;;;6.70;86.26
55044;BME280;54902;50.420;18.854;2022-12-24T00:59:01;100196.61;;;6.70;86.26
55044;BME280;54902;50.420;18.854;2022-12-24T00:59:32;100191.18;;;6.70;86.25
55044;BME280;54902;50.420;18.854;2022-12-24T01:00:03;100199.33;;;6.70;86.25
55044;BME280;54902;50.420;18.854;2022-12-24T01:00:35;100193.91;;;6.70;86.26
55044;BME280;54902;50.420;18.854;2022-12-24T01:01:06;100199.33;;;6.70;86.26
55044;BME280;54902;50.420;18.854;2022-12-24T01:01:37;100194.75;;;6.70;86.25
55044;BME280;54902;50.420;18.854;2022-12-24T01:02:08;100197.46;;;6.70;86.25
55044;BME280;54902;50.420;18.854;2022-12-24T01:02:39;100198.31;;;6.71;86.25
55044;BME280;54902;50.420;18.854;2022-12-24T01:03:10;100198.31;;;6.71;86.25
55044;BME280;54902;50.420;18.854;2022-12-24T01:03:41;100204.63;;;6.71;86.26
55044;BME280;54902;50.420;18.854;2022-12-24T01:04:12;100197.46;;;6.70;86.25
55044;BME280;54902;50.420;18.854;2022-12-24T01:04:55;100201.03;;;6.71;86.26
55044;BME280;54902;50.420;18.854;2022-12-24T01:05:38;100198.31;;;6.71;86.26
55044;BME280;54902;50.420;18.854;2022-12-24T01:06:13;100199.20;;;6.71;86.27
55044;BME280;54902;50.420;18.854;2022-12-24T01:06:44;100196.49;;;6.71;86.29
55044;BME280;54902;50.420;18.854;2022-12-24T01:07:15;100193.78;;;6.71;86.26
55044;BME280;54902;50.420;18.854;2022-12-24T01:07:46;100182.92;;;6.71;86.27
55044;BME280;54902;50.420;18.854;2022-12-24T01:08:17;100193.78;;;6.71;86.25
55044;BME280;54902;50.420;18.854;2022-12-24T01:08:51;100188.34;;;6.71;86.26
55044;BME280;54902;50.420;18.854;2022-12-24T01:09:22;100188.34;;;6.71;86.26
55044;BME280;54902;50.420;18.854;2022-12-24T01:09:53;100182.04;;;6.71;86.27
55044;BME280;54902;50.420;18.854;2022-12-24T01:10:24;100182.04;;;6.71;86.26
55044;BME280;54902;50.420;18.854;2022-12-24T01:10:55;100191.06;;;6.71;86.23
55044;BME280;54902;50.420;18.854;2022-12-24T01:11:27;100173.81;;;6.72;86.26
55044;BME280;54902;50.420;18.854;2022-12-24T01:11:58;100179.31;;;6.71;86.25
55044;BME280;54902;50.420;18.854;2022-12-24T01:12:29;100181.18;;;6.70;86.27
55044;BME280;54902;50.420;18.854;2022-12-24T01:13:01;100177.48;;;6.71;86.25
55044;BME280;54902;50.420;18.854;2022-12-24T01:13:33;100180.20;;;6.71;86.27
55044;BME280;54902;50.420;18.854;2022-12-24T01:14:04;100174.77;;;6.71;86.27
55044;BME280;54902;50.420;18.854;2022-12-24T01:14:36;100178.34;;;6.72;86.25
55044;BME280;54902;50.420;18.854;2022-12-24T01:15:08;100177.48;;;6.71;86.27
55044;BME280;54902;50.420;18.854;2022-12-24T01:15:39;100175.63;;;6.72;86.25
55044;BME280;54902;50.420;18.854;2022-12-24T01:16:14;100171.18;;;6.71;86.25
55044;BME280;54902;50.420;18.854;2022-12-24T01:16:45;100177.48;;;6.71;86.25
55044;BME280;54902;50.420;18.854;2022-12-24T01:17:16;100170.20;;;6.72;86.25
55044;BME280;54902;50.420;18.854;2022-12-24T01:17:47;100167.48;;;6.72;86.27
55044;BME280;54902;50.420;18.854;2022-12-24T01:18:18;100168.59;;;6.69;86.23
55044;BME280;54902;50.420;18.854;2022-12-24T01:18:49;100172.06;;;6.71;86.25
55044;BME280;54902;50.420;18.854;2022-12-24T01:19:20;100164.90;;;6.70;86.25
55044;BME280;54902;50.420;18.854;2022-12-24T01:19:51;100171.18;;;6.71;86.26
55044;BME280;54902;50.420;18.854;2022-12-24T01:20:22;100177.48;;;6.71;86.24
55044;BME280;54902;50.420;18.854;2022-12-24T01:21:01;100178.47;;;6.70;86.25
55044;BME280;54902;50.420;18.854;2022-12-24T01:21:32;100179.31;;;6.71;86.24
55044;BME280;54902;50.420;18.854;2022-12-24T01:22:03;100173.04;;;6.70;86.25
55044;BME280;54902;50.420;18.854;2022-12-24T01:22:34;100188.34;;;6.71;86.25
55044;BME280;54902;50.420;18.854;2022-12-24T01:23:05;100181.18;;;6.70;86.25
55044;BME280;54902;50.420;18.854;2022-12-24T01:23:36;100184.75;;;6.71;86.24
55044;BME280;54902;50.420;18.854;2022-12-24T01:24:14;100174.02;;;6.69;86.24
55044;BME280;54902;50.420;18.854;2022-12-24T01:24:45;100184.88;;;6.69;86.23
55044;BME280;54902;50.420;18.854;2022-12-24T01:25:17;100181.18;;;6.70;86.23
55044;BME280;54902;50.420;18.854;2022-12-24T01:25:47;100176.73;;;6.69;86.23
55044;BME280;54902;50.420;18.854;2022-12-24T01:26:18;100174.02;;;6.69;86.22
55044;BME280;54902;50.420;18.854;2022-12-24T01:26:49;100174.02;;;6.69;86.22
55044;BME280;54902;50.420;18.854;2022-12-24T01:27:20;100175.88;;;6.69;86.22
55044;BME280;54902;50.420;18.854;2022-12-24T01:27:52;100175.88;;;6.69;86.22
55044;BME280;54902;50.420;18.854;2022-12-24T01:28:23;100176.73;;;6.69;86.23
55044;BME280;54902;50.420;18.854;2022-12-24T01:28:53;100176.73;;;6.69;86.23
55044;BME280;54902;50.420;18.854;2022-12-24T01:29:27;100177.74;;;6.68;86.22
55044;BME280;54902;50.420;18.854;2022-12-24T01:29:57;100177.74;;;6.68;86.22
55044;BME280;54902;50.420;18.854;2022-12-24T01:30:28;100168.71;;;6.68;86.23
55044;BME280;54902;50.420;18.854;2022-12-24T01:30:59;100183.16;;;6.68;86.22
55044;BME280;54902;50.420;18.854;2022-12-24T01:31:30;100165.14;;;6.67;86.46
55044;BME280;54902;50.420;18.854;2022-12-24T01:32:02;100171.41;;;6.68;86.24
55044;BME280;54902;50.420;18.854;2022-12-24T01:32:33;100166.00;;;6.68;86.23
55044;BME280;54902;50.420;18.854;2022-12-24T01:33:04;100166.00;;;6.68;86.25
55044;BME280;54902;50.420;18.854;2022-12-24T01:33:35;100164.17;;;6.68;86.23
55044;BME280;54902;50.420;18.854;2022-12-24T01:34:06;100163.29;;;6.68;86.24
55044;BME280;54902;50.420;18.854;2022-12-24T01:34:37;100146.01;;;6.58;86.22
55044;BME280;54902;50.420;18.854;2022-12-24T01:35:08;100164.26;;;6.67;86.22
55044;BME280;54902;50.420;18.854;2022-12-24T01:35:40;100157.01;;;6.67;86.25
55044;BME280;54902;50.420;18.854;2022-12-24T01:36:12;100156.03;;;6.68;86.23
55044;BME280;54902;50.420;18.854;2022-12-24T01:36:43;100159.73;;;6.67;86.24
55044;BME280;54902;50.420;18.854;2022-12-24T01:37:14;100154.28;;;6.67;86.21
55044;BME280;54902;50.420;18.854;2022-12-24T01:37:45;100156.03;;;6.68;86.23
55044;BME280;54902;50.420;18.854;2022-12-24T01:38:17;100151.58;;;6.67;86.22
55044;BME280;54902;50.420;18.854;2022-12-24T01:38:48;100148.87;;;6.67;86.21
55044;BME280;54902;50.420;18.854;2022-12-24T01:39:19;100150.69;;;6.67;86.22
55044;BME280;54902;50.420;18.854;2022-12-24T01:39:50;100143.43;;;6.67;86.22
55044;BME280;54902;50.420;18.854;2022-12-24T01:40:31;100148.87;;;6.67;86.22
55044;BME280;54902;50.420;18.854;2022-12-24T01:41:16;100155.27;;;6.66;86.22
55044;BME280;54902;50.420;18.854;2022-12-24T01:41:59;100148.99;;;6.66;86.20
55044;BME280;54902;50.420;18.854;2022-12-24T01:42:47;100157.13;;;6.66;86.21
55044;BME280;54902;50.420;18.854;2022-12-24T01:43:31;100164.26;;;6.67;86.22
55044;BME280;54902;50.420;18.854;2022-12-24T01:44:49;100163.41;;;6.66;86.20
55044;BME280;54902;50.420;18.854;2022-12-24T01:45:34;100162.55;;;6.66;86.21
55044;BME280;54902;50.420;18.854;2022-12-24T01:46:13;100161.66;;;6.65;86.22
55044;BME280;54902;50.420;18.854;2022-12-24T01:46:47;100167.09;;;6.65;86.19
55044;BME280;54902;50.420;18.854;2022-12-24T01:47:28;100165.39;;;6.64;86.19
55044;BME280;54902;50.420;18.854;2022-12-24T01:48:00;100157.13;;;6.66;86.20
55044;BME280;54902;50.420;18.854;2022-12-24T01:49:14;100154.41;;;6.66;86.21
55044;BME280;54902;50.420;18.854;2022-12-24T01:49:52;100156.23;;;6.65;86.19
55044;BME280;54902;50.420;18.854;2022-12-24T01:50:23;100159.97;;;6.64;86.20
55044;BME280;54902;50.420;18.854;2022-12-24T01:51:01;100167.09;;;6.65;86.18
55044;BME280;54902;50.420;18.854;2022-12-24T01:52:23;100164.51;;;6.64;86.20
55044;BME280;54902;50.420;18.854;2022-12-24T01:52:56;100168.11;;;6.64;86.20
55044;BME280;54902;50.420;18.854;2022-12-24T01:53:28;100163.66;;;6.63;86.19
55044;BME280;54902;50.420;18.854;2022-12-24T01:54:09;100172.52;;;6.65;86.21
55044;BME280;54902;50.420;18.854;2022-12-24T01:54:50;100160.82;;;6.65;86.21
55044;BME280;54902;50.420;18.854;2022-12-24T01:55:23;100166.25;;;6.65;86.22
55044;BME280;54902;50.420;18.854;2022-12-24T01:55:56;100159.08;;;6.64;86.21
55044;BME280;54902;50.420;18.854;2022-12-24T01:56:29;100159.97;;;6.64;86.20
55044;BME280;54902;50.420;18.854;2022-12-24T01:57:24;100162.68;;;6.64;86.21
55044;BME280;54902;50.420;18.854;2022-12-24T01:57:54;100155.39;;;6.65;86.21
55044;BME280;54902;50.420;18.854;2022-12-24T01:58:26;100150.95;;;6.64;86.22
55044;BME280;54902;50.420;18.854;2022-12-24T01:59:03;100158.23;;;6.63;86.22
55044;BME280;54902;50.420;18.854;2022-12-24T01:59:36;100151.83;;;6.64;86.20
55044;BME280;54902;50.420;18.854;2022-12-24T02:00:11;100157.13;;;6.66;86.22
55044;BME280;54902;50.420;18.854;2022-12-24T02:00:42;100162.68;;;6.64;86.22
55044;BME280;54902;50.420;18.854;2022-12-24T02:01:14;100148.23;;;6.64;86.22
55044;BME280;54902;50.420;18.854;2022-12-24T02:01:46;100145.38;;;6.65;86.23
55044;BME280;54902;50.420;18.854;2022-12-24T02:02:18;100156.23;;;6.65;86.22
55044;BME280;54902;50.420;18.854;2022-12-24T02:02:52;100149.11;;;6.64;86.23
55044;BME280;54902;50.420;18.854;2022-12-24T02:03:23;100147.25;;;6.65;86.23
55044;BME280;54902;50.420;18.854;2022-12-24T02:03:55;100150.82;;;6.65;86.25
55044;BME280;54902;50.420;18.854;2022-12-24T02:04:33;100145.38;;;6.65;86.25
55044;BME280;54902;50.420;18.854;2022-12-24T02:05:54;100153.53;;;6.65;86.28
55044;BME280;54902;50.420;18.854;2022-12-24T02:06:27;100161.66;;;6.65;86.28
55044;BME280;54902;50.420;18.854;2022-12-24T02:06:58;100153.53;;;6.65;86.26
55044;BME280;54902;50.420;18.854;2022-12-24T02:07:31;100163.41;;;6.66;86.27
55044;BME280;54902;50.420;18.854;2022-12-24T02:08:03;100157.98;;;6.66;86.27
55044;BME280;54902;50.420;18.854;2022-12-24T02:08:35;100157.98;;;6.66;86.29
55044;BME280;54902;50.420;18.854;2022-12-24T02:09:12;100153.53;;;6.65;86.29
55044;BME280;54902;50.420;18.854;2022-12-24T02:09:43;100154.41;;;6.66;86.27
55044;BME280;54902;50.420;18.854;2022-12-24T02:10:14;100158.95;;;6.65;86.27
55044;BME280;54902;50.420;18.854;2022-12-24T02:10:46;100157.98;;;6.66;86.27
55044;BME280;54902;50.420;18.854;2022-12-24T02:11:20;100169.69;;;6.67;86.29
55044;BME280;54902;50.420;18.854;2022-12-24T02:11:52;100163.41;;;6.66;86.29
55044;BME280;54902;50.420;18.854;2022-12-24T02:12:25;100162.55;;;6.66;86.29
55044;BME280;54902;50.420;18.854;2022-12-24T02:12:58;100161.66;;;6.65;86.30
55044;BME280;54902;50.420;18.854;2022-12-24T02:13:30;100169.80;;;6.65;86.29
55044;BME280;54902;50.420;18.854;2022-12-24T02:14:01;100168.84;;;6.66;86.30
55044;BME280;54902;50.420;18.854;2022-12-24T02:14:33;100171.55;;;6.66;86.33
55044;BME280;54902;50.420;18.854;2022-12-24T02:15:06;100177.83;;;6.67;86.33
55044;BME280;54902;50.420;18.854;2022-12-24T02:15:49;100174.26;;;6.66;86.36
55044;BME280;54902;50.420;18.854;2022-12-24T02:16:32;100170.58;;;6.67;86.34
55044;BME280;54902;50.420;18.854;2022-12-24T02:18:41;100159.73;;;6.67;86.35
55044;BME280;54902;50.420;18.854;2022-12-24T02:20:10;100135.49;;;6.53;86.37
55044;BME280;54902;50.420;18.854;2022-12-24T02:22:12;100173.16;;;6.69;86.41
55044;BME280;54902;50.420;18.854;2022-12-24T02:27:13;100163.91;;;6.71;86.43
55044;BME280;54902;50.420;18.854;2022-12-24T02:27:53;100176.52;;;6.72;86.45
55044;BME280;54902;50.420;18.854;2022-12-24T02:31:22;100174.52;;;6.74;86.45
55044;BME280;54902;50.420;18.854;2022-12-24T02:32:04;100177.25;;;6.74;86.45
55044;BME280;54902;50.420;18.854;2022-12-24T02:33:29;100176.27;;;6.75;86.46
55044;BME280;54902;50.420;18.854;2022-12-24T02:35:46;100170.71;;;6.77;86.50
55044;BME280;54902;50.420;18.854;2022-12-24T02:36:28;100173.42;;;6.77;86.50
55044;BME280;54902;50.420;18.854;2022-12-24T02:37:03;100171.56;;;6.77;86.50
55044;BME280;54902;50.420;18.854;2022-12-24T02:37:41;100168.85;;;6.77;86.53
55044;BME280;54902;50.420;18.854;2022-12-24T02:39:03;100173.31;;;6.78;86.56
55044;BME280;54902;50.420;18.854;2022-12-24T02:40:24;100181.32;;;6.80;86.56
55044;BME280;54902;50.420;18.854;2022-12-24T02:41:12;100173.05;;;6.81;86.57
55044;BME280;54902;50.420;18.854;2022-12-24T02:41:44;100172.20;;;6.81;86.57
55044;BME280;54902;50.420;18.854;2022-12-24T02:42:36;100171.23;;;6.82;86.58
55044;BME280;54902;50.420;18.854;2022-12-24T02:43:17;100172.09;;;6.82;86.58
55044;BME280;54902;50.420;18.854;2022-12-24T02:43:50;100172.09;;;6.82;86.58
55044;BME280;54902;50.420;18.854;2022-12-24T02:44:27;100180.22;;;6.82;86.59
55044;BME280;54902;50.420;18.854;2022-12-24T02:45:06;100178.27;;;6.84;86.60
55044;BME280;54902;50.420;18.854;2022-12-24T02:45:39;100172.84;;;6.84;86.61
55044;BME280;54902;50.420;18.854;2022-12-24T02:46:15;100176.41;;;6.85;86.62
55044;BME280;54902;50.420;18.854;2022-12-24T02:46:47;100177.26;;;6.85;86.63
55044;BME280;54902;50.420;18.854;2022-12-24T02:47:21;100176.27;;;6.86;86.63
55044;BME280;54902;50.420;18.854;2022-12-24T02:47:54;100176.27;;;6.86;86.65
55044;BME280;54902;50.420;18.854;2022-12-24T02:48:27;100172.59;;;6.87;86.63
55044;BME280;54902;50.420;18.854;2022-12-24T02:49:00;100173.44;;;6.88;86.68
55044;BME280;54902;50.420;18.854;2022-12-24T02:49:31;100178.88;;;6.88;86.64
55044;BME280;54902;50.420;18.854;2022-12-24T02:50:03;100178.88;;;6.88;86.64
55044;BME280;54902;50.420;18.854;2022-12-24T02:50:37;100174.32;;;6.88;86.68
55044;BME280;54902;50.420;18.854;2022-12-24T02:51:09;100173.44;;;6.88;86.66
55044;BME280;54902;50.420;18.854;2022-12-24T02:51:40;100182.34;;;6.90;86.66
55044;BME280;54902;50.420;18.854;2022-12-24T02:52:54;100177.76;;;6.90;86.68
55044;BME280;54902;50.420;18.854;2022-12-24T02:53:25;100175.94;;;6.91;86.66
55044;BME280;54902;50.420;18.854;2022-12-24T02:53:56;100174.92;;;6.92;86.67
55044;BME280;54902;50.420;18.854;2022-12-24T02:54:29;100175.80;;;6.92;86.67
55044;BME280;54902;50.420;18.854;2022-12-24T02:55:11;100168.65;;;6.91;86.68
55044;BME280;54902;50.420;18.854;2022-12-24T02:55:54;100164.95;;;6.92;86.67
55044;BME280;54902;50.420;18.854;2022-12-24T02:56:34;100171.23;;;6.93;86.71
55044;BME280;54902;50.420;18.854;2022-12-24T02:57:19;100182.98;;;6.93;86.70
55044;BME280;54902;50.420;18.854;2022-12-24T03:00:09;100184.68;;;6.94;86.71
55044;BME280;54902;50.420;18.854;2022-12-24T03:00:53;100181.12;;;6.93;86.72
55044;BME280;54902;50.420;18.854;2022-12-24T03:03:47;100185.44;;;6.96;86.73
55044;BME280;54902;50.420;18.854;2022-12-24T03:05:58;100181.84;;;6.95;86.78
55044;BME280;54902;50.420;18.854;2022-12-24T03:07:21;100184.47;;;6.97;86.77
55044;BME280;54902;50.420;18.854;2022-12-24T03:08:05;100185.33;;;6.97;86.75
55044;BME280;54902;50.420;18.854;2022-12-24T03:08:49;100176.33;;;6.97;86.76
55044;BME280;54902;50.420;18.854;2022-12-24T03:10:55;100176.33;;;6.97;86.76
55044;BME280;54902;50.420;18.854;2022-12-24T03:11:27;100174.46;;;6.97;86.76
55044;BME280;54902;50.420;18.854;2022-12-24T03:12:05;100180.74;;;6.98;86.76
55044;BME280;54902;50.420;18.854;2022-12-24T03:12:42;100180.87;;;6.96;86.75
55044;BME280;54902;50.420;18.854;2022-12-24T03:13:15;100173.60;;;6.97;86.76
55044;BME280;54902;50.420;18.854;2022-12-24T03:13:47;100189.89;;;6.97;86.74
55044;BME280;54902;50.420;18.854;2022-12-24T03:14:20;100179.26;;;6.94;86.64
55044;BME280;54902;50.420;18.854;2022-12-24T03:14:52;100188.89;;;6.98;86.68
55044;BME280;54902;50.420;18.854;2022-12-24T03:15:25;100185.33;;;6.97;86.75
55044;BME280;54902;50.420;18.854;2022-12-24T03:15:57;100196.19;;;6.97;86.75
55044;BME280;54902;50.420;18.854;2022-12-24T03:16:28;100190.75;;;6.97;86.75
55044;BME280;54902;50.420;18.854;2022-12-24T03:17:02;100197.03;;;6.98;86.74
55044;BME280;54902;50.420;18.854;2022-12-24T03:17:36;100190.75;;;6.97;86.74
55044;BME280;54902;50.420;18.854;2022-12-24T03:18:10;100184.47;;;6.97;86.75
55044;BME280;54902;50.420;18.854;2022-12-24T03:18:45;100192.48;;;6.98;86.74
55044;BME280;54902;50.420;18.854;2022-12-24T03:19:19;100193.34;;;6.99;86.75
55044;BME280;54902;50.420;18.854;2022-12-24T03:19:51;100186.16;;;6.98;86.74
55044;BME280;54902;50.420;18.854;2022-12-24T03:20:34;100197.92;;;6.98;86.74
55044;BME280;54902;50.420;18.854;2022-12-24T03:21:11;100198.77;;;6.99;86.73